createdAt,value
2022-12-01T00:00:19.565Z,29.531
2022-12-01T00:05:16.592Z,29.541
2022-12-01T00:10:16.660Z,29.529
2022-12-01T00:15:19.639Z,29.525
2022-12-01T00:20:19.607Z,29.524
2022-12-01T00:25:19.581Z,29.523
2022-12-01T00:30:19.648Z,29.520
2022-12-01T00:35:19.565Z,29.536
2022-12-01T00:40:19.535Z,29.537
2022-12-01T00:45:19.588Z,29.540
2022-12-01T00:50:19.615Z,29.534
2022-12-01T00:55:19.599Z,29.533
2022-12-01T01:00:16.679Z,29.527
2022-12-01T01:05:16.693Z,29.531
2022-12-01T01:10:16.621Z,29.536
2022-12-01T01:15:16.637Z,29.575
2022-12-01T01:20:16.461Z,29.575
2022-12-01T01:25:16.701Z,29.577
2022-12-01T01:30:19.637Z,29.575
2022-12-01T01:35:19.617Z,29.563
2022-12-01T01:40:19.596Z,29.565
2022-12-01T01:45:19.591Z,29.564
2022-12-01T01:50:19.615Z,29.571
2022-12-01T01:55:19.655Z,29.580
2022-12-01T02:00:19.678Z,29.589
2022-12-01T02:05:19.612Z,29.591
2022-12-01T02:10:19.641Z,29.577
2022-12-01T02:15:19.595Z,29.583
2022-12-01T02:20:19.636Z,29.586
2022-12-01T02:25:19.608Z,29.592
2022-12-01T02:30:19.627Z,29.593
2022-12-01T02:35:19.623Z,29.592
2022-12-01T02:40:19.668Z,29.595
2022-12-01T02:45:19.684Z,29.602
2022-12-01T02:50:19.603Z,29.605
2022-12-01T02:55:19.639Z,29.611
2022-12-01T03:00:19.658Z,29.611
2022-12-01T03:05:19.679Z,29.617
2022-12-01T03:10:19.636Z,29.615
2022-12-01T03:15:16.735Z,29.620
2022-12-01T03:20:19.706Z,29.625
2022-12-01T03:25:19.660Z,29.623
2022-12-01T03:30:19.665Z,29.622
2022-12-01T03:35:16.518Z,29.626
2022-12-01T03:40:19.679Z,29.625
2022-12-01T03:45:16.737Z,29.626
2022-12-01T03:50:19.761Z,29.632
2022-12-01T03:55:19.646Z,29.633
2022-12-01T04:00:19.695Z,29.629
2022-12-01T04:05:19.907Z,29.632
2022-12-01T04:10:19.710Z,29.636
2022-12-01T04:15:19.707Z,29.649
2022-12-01T04:20:19.672Z,29.651
2022-12-01T04:25:16.715Z,29.658
2022-12-01T04:30:19.719Z,29.665
2022-12-01T04:35:19.701Z,29.661
2022-12-01T04:40:19.708Z,29.662
2022-12-01T04:45:19.682Z,29.669
2022-12-01T04:50:16.720Z,29.670
2022-12-01T04:55:19.794Z,29.673
2022-12-01T05:00:18.928Z,29.679
2022-12-01T05:05:18.948Z,29.676
2022-12-01T05:10:19.005Z,29.677
2022-12-01T05:15:18.972Z,29.678
2022-12-01T05:20:18.979Z,29.682
2022-12-01T05:25:18.959Z,29.682
2022-12-01T05:30:18.969Z,29.684
2022-12-01T05:35:19.001Z,29.685
2022-12-01T05:40:18.976Z,29.687
2022-12-01T05:45:19.015Z,29.689
2022-12-01T05:50:19.002Z,29.689
2022-12-01T05:55:19.029Z,29.692
2022-12-01T06:00:16.060Z,29.694
2022-12-01T06:05:15.993Z,29.700
2022-12-01T06:10:15.889Z,29.707
2022-12-01T06:15:19.004Z,29.707
2022-12-01T06:20:16.077Z,29.714
2022-12-01T06:25:19.071Z,29.718
2022-12-01T06:30:16.115Z,29.728
2022-12-01T06:35:19.082Z,29.731
2022-12-01T06:40:19.073Z,29.743
2022-12-01T06:45:16.007Z,29.742
2022-12-01T06:50:16.123Z,29.748
2022-12-01T06:55:19.031Z,29.750
2022-12-01T07:00:16.065Z,29.757
2022-12-01T07:05:19.021Z,29.763
2022-12-01T07:10:16.066Z,29.764
2022-12-01T07:15:19.069Z,29.770
2022-12-01T07:20:19.046Z,29.775
2022-12-01T07:25:16.105Z,29.777
2022-12-01T07:30:16.071Z,29.780
2022-12-01T07:35:15.838Z,29.783
2022-12-01T07:40:16.052Z,29.782
2022-12-01T07:45:19.051Z,29.784
2022-12-01T07:50:16.063Z,29.781
2022-12-01T07:55:16.074Z,29.782
2022-12-01T08:00:19.171Z,29.784
2022-12-01T08:05:16.076Z,29.785
2022-12-01T08:10:19.061Z,29.785
2022-12-01T08:15:19.033Z,29.787
2022-12-01T08:20:20.828Z,29.787
2022-12-01T08:25:19.091Z,29.787
2022-12-01T08:30:19.060Z,29.788
2022-12-01T08:35:16.162Z,29.790
2022-12-01T08:40:16.070Z,29.788
2022-12-01T08:45:19.117Z,29.789
2022-12-01T08:50:19.096Z,29.791
2022-12-01T08:55:19.073Z,29.796
2022-12-01T09:00:16.131Z,29.798
2022-12-01T09:05:16.133Z,29.802
2022-12-01T09:10:16.122Z,29.806
2022-12-01T09:15:19.080Z,29.810
2022-12-01T09:20:16.171Z,29.812
2022-12-01T09:25:16.142Z,29.815
2022-12-01T09:30:16.134Z,29.819
2022-12-01T09:35:18.581Z,29.823
2022-12-01T09:40:16.131Z,29.829
2022-12-01T09:45:15.975Z,29.834
2022-12-01T09:50:19.088Z,29.837
2022-12-01T09:55:19.076Z,29.839
2022-12-01T10:00:19.097Z,29.844
2022-12-01T10:05:19.158Z,29.847
2022-12-01T10:10:19.134Z,29.846
2022-12-01T10:15:19.195Z,29.851
2022-12-01T10:20:19.102Z,29.855
2022-12-01T10:25:19.164Z,29.858
2022-12-01T10:30:19.182Z,29.861
2022-12-01T10:35:19.112Z,29.866
2022-12-01T10:40:16.190Z,29.866
2022-12-01T10:45:19.113Z,29.870
2022-12-01T10:50:16.154Z,29.876
2022-12-01T10:55:16.187Z,29.878
2022-12-01T11:00:43.009Z,29.881
2022-12-01T11:05:16.191Z,29.887
2022-12-01T11:10:19.139Z,29.890
2022-12-01T11:15:19.114Z,29.891
2022-12-01T11:20:16.219Z,29.896
2022-12-01T11:25:19.173Z,29.899
2022-12-01T11:30:16.172Z,29.901
2022-12-01T11:35:19.162Z,29.902
2022-12-01T11:40:19.227Z,29.903
2022-12-01T11:45:19.100Z,29.903
2022-12-01T11:50:19.237Z,29.906
2022-12-01T11:55:16.218Z,29.909
2022-12-01T12:00:19.266Z,29.914
2022-12-01T12:05:19.170Z,29.918
2022-12-01T12:10:19.120Z,29.921
2022-12-01T12:15:19.117Z,29.925
2022-12-01T12:20:19.295Z,29.927
2022-12-01T12:25:19.156Z,29.929
2022-12-01T12:30:19.179Z,29.931
2022-12-01T12:35:19.176Z,29.937
2022-12-01T12:40:16.274Z,29.940
2022-12-01T12:45:16.154Z,29.944
2022-12-01T12:50:19.237Z,29.946
2022-12-01T12:55:19.194Z,29.946
2022-12-01T13:00:19.155Z,29.946
2022-12-01T13:05:19.178Z,29.950
2022-12-01T13:10:19.115Z,29.950
2022-12-01T13:15:19.160Z,29.953
2022-12-01T13:20:19.185Z,29.952
2022-12-01T13:25:16.207Z,29.954
2022-12-01T13:30:19.158Z,29.958
2022-12-01T13:35:16.228Z,29.957
2022-12-01T13:40:19.201Z,29.959
2022-12-01T13:45:16.262Z,29.965
2022-12-01T13:50:19.249Z,29.965
2022-12-01T13:55:19.185Z,29.969
2022-12-01T14:00:16.351Z,29.970
2022-12-01T14:05:19.220Z,29.971
2022-12-01T14:10:19.228Z,29.972
2022-12-01T14:15:19.183Z,29.973
2022-12-01T14:20:16.254Z,29.972
2022-12-01T14:25:16.247Z,29.972
2022-12-01T14:30:19.195Z,29.973
2022-12-01T14:35:19.251Z,29.978
2022-12-01T14:40:19.224Z,29.979
2022-12-01T14:45:19.169Z,29.983
2022-12-01T14:50:19.203Z,29.985
2022-12-01T14:55:19.188Z,29.991
2022-12-01T15:00:16.255Z,29.989
2022-12-01T15:05:19.214Z,29.991
2022-12-01T15:10:19.227Z,29.992
2022-12-01T15:15:23.689Z,29.992
2022-12-01T15:20:16.249Z,29.996
2022-12-01T15:25:19.270Z,29.996
2022-12-01T15:30:19.232Z,30.000
2022-12-01T15:35:16.302Z,30.002
2022-12-01T15:41:21.113Z,30.003
2022-12-01T15:45:19.227Z,30.002
2022-12-01T15:50:19.254Z,30.002
2022-12-01T15:55:19.192Z,30.005
2022-12-01T16:00:19.250Z,30.003
2022-12-01T16:05:16.090Z,30.011
2022-12-01T16:10:16.303Z,30.007
2022-12-01T16:15:16.289Z,30.010
2022-12-01T16:20:19.421Z,30.013
2022-12-01T16:25:19.380Z,30.008
2022-12-01T16:30:19.267Z,30.010
2022-12-01T16:35:19.264Z,30.009
2022-12-01T16:40:19.347Z,30.008
2022-12-01T16:45:16.293Z,30.003
2022-12-01T16:50:19.357Z,30.006
2022-12-01T16:55:16.315Z,30.010
2022-12-01T17:00:19.275Z,30.011
2022-12-01T17:05:16.325Z,30.011
2022-12-01T17:10:19.269Z,30.010
2022-12-01T17:15:19.270Z,30.010
2022-12-01T17:20:19.255Z,30.009
2022-12-01T17:25:16.277Z,30.012
2022-12-01T17:30:19.343Z,30.015
2022-12-01T17:35:19.262Z,30.016
2022-12-01T17:40:16.286Z,30.016
2022-12-01T17:45:16.347Z,30.020
2022-12-01T17:50:16.338Z,30.018
2022-12-01T17:55:19.416Z,30.023
2022-12-01T18:00:19.399Z,30.024
2022-12-01T18:05:19.427Z,30.026
2022-12-01T18:10:16.315Z,30.029
2022-12-01T18:15:19.345Z,30.029
2022-12-01T18:20:19.283Z,30.028
2022-12-01T18:25:16.345Z,30.031
2022-12-01T18:30:16.415Z,30.034
2022-12-01T18:35:19.323Z,30.032
2022-12-01T18:40:16.343Z,30.030
2022-12-01T18:45:20.713Z,30.034
2022-12-01T18:50:19.411Z,30.032
2022-12-01T18:55:19.308Z,30.034
2022-12-01T19:00:19.310Z,30.034
2022-12-01T19:05:19.294Z,30.036
2022-12-01T19:10:19.337Z,30.042
2022-12-01T19:15:19.288Z,30.045
2022-12-01T19:20:19.360Z,30.047
2022-12-01T19:25:16.366Z,30.054
2022-12-01T19:30:19.391Z,30.056
2022-12-01T19:35:16.404Z,30.060
2022-12-01T19:40:19.361Z,30.069
2022-12-01T19:45:19.321Z,30.065
2022-12-01T19:50:16.352Z,30.073
2022-12-01T19:55:19.355Z,30.072
2022-12-01T20:00:19.368Z,30.080
2022-12-01T20:05:19.301Z,30.083
2022-12-01T20:10:16.369Z,30.091
2022-12-01T20:15:16.383Z,30.092
2022-12-01T20:20:19.440Z,30.096
2022-12-01T20:25:19.307Z,30.099
2022-12-01T20:30:19.350Z,30.100
2022-12-01T20:35:16.419Z,30.105
2022-12-01T20:40:19.402Z,30.114
2022-12-01T20:45:19.384Z,30.114
2022-12-01T20:50:16.434Z,30.117
2022-12-01T20:55:19.428Z,30.116
2022-12-01T21:00:16.421Z,30.125
2022-12-01T21:05:19.360Z,30.130
2022-12-01T21:10:19.981Z,30.135
2022-12-01T21:15:19.450Z,30.140
2022-12-01T21:20:16.321Z,30.141
2022-12-01T21:25:16.384Z,30.143
2022-12-01T21:30:19.388Z,30.145
2022-12-01T21:35:16.472Z,30.147
2022-12-01T21:40:19.421Z,30.155
2022-12-01T21:45:19.424Z,30.156
2022-12-01T21:50:16.773Z,30.159
2022-12-01T21:55:16.461Z,30.166
2022-12-01T22:00:16.336Z,30.168
2022-12-01T22:05:19.430Z,30.178
2022-12-01T22:10:19.413Z,30.184
2022-12-01T22:15:19.394Z,30.183
2022-12-01T22:20:19.358Z,30.182
2022-12-01T22:25:19.440Z,30.186
2022-12-01T22:30:19.424Z,30.190
2022-12-01T22:35:16.453Z,30.196
2022-12-01T22:40:16.338Z,30.200
2022-12-01T22:45:16.465Z,30.203
2022-12-01T22:50:19.442Z,30.202
2022-12-01T22:55:16.460Z,30.201
2022-12-01T23:00:19.464Z,30.208
2022-12-01T23:05:19.391Z,30.206
2022-12-01T23:10:19.450Z,30.211
2022-12-01T23:15:19.415Z,30.212
2022-12-01T23:20:19.430Z,30.215
2022-12-01T23:25:19.459Z,30.214
2022-12-01T23:30:16.500Z,30.219
2022-12-01T23:35:19.479Z,30.219
2022-12-01T23:40:16.501Z,30.222
2022-12-01T23:45:16.465Z,30.227
2022-12-01T23:50:16.477Z,30.223
2022-12-01T23:55:16.497Z,30.228
